Time;durP1;ratioP1;P1;durP2;ratioP2;P2;SDS_P1;SDS_P2;PMS_P1;PMS_P2;Temp;Humidity;BMP_temperature;BMP_pressure;BME280_temperature;BME280_humidity;BME280_pressure;Samples;Min_cycle;Max_cycle;Signal;HPM_P1;HPM_P2
2024/02/20 00:02:18;;;;;;;8.18;4.03;;;;;;;;;;5057979;28;20025;-57
2024/02/20 00:04:44;;;;;;;4.53;3.42;;;;;;;;;;5057202;28;20028;-57
2024/02/20 00:07:10;;;;;;;4.88;3.33;;;;;;;;;;5057931;28;20032;-57
2024/02/20 00:09:36;;;;;;;4.88;4.07;;;;;;;;;;5057756;28;20052;-57
2024/02/20 00:12:02;;;;;;;4.95;3.38;;;;;;;;;;5057216;28;20025;-57
2024/02/20 00:14:28;;;;;;;3.60;3.10;;;;;;;;;;5057194;28;20021;-57
2024/02/20 00:16:54;;;;;;;7.57;3.92;;;;;;;;;;5057184;28;20025;-57
2024/02/20 00:19:20;;;;;;;7.30;3.58;;;;;;;;;;5057702;28;20025;-57
2024/02/20 00:21:47;;;;;;;5.82;3.53;;;;;;;;;;5057222;28;20039;-57
2024/02/20 00:24:13;;;;;;;4.30;3.00;;;;;;;;;;5057500;28;20386;-57
2024/02/20 00:26:39;;;;;;;4.68;3.13;;;;;;;;;;5057522;28;20035;-57
2024/02/20 00:29:05;;;;;;;3.83;2.50;;;;;;;;;;5057014;28;20029;-57
2024/02/20 00:31:32;;;;;;;4.50;2.63;;;;;;;;;;5056997;28;20027;-57
2024/02/20 00:34:00;;;;;;;8.35;2.80;;;;;;;;;;5057098;28;20044;-57
2024/02/20 00:36:26;;;;;;;5.53;3.35;;;;;;;;;;5057558;28;20060;-57
2024/02/20 00:38:52;;;;;;;7.50;3.33;;;;;;;;;;5057302;28;20033;-57
2024/02/20 00:41:18;;;;;;;4.38;2.80;;;;;;;;;;5056737;28;20025;-57
2024/02/20 00:43:44;;;;;;;3.70;2.45;;;;;;;;;;5056933;28;20348;-57
2024/02/20 00:46:18;;;;;;;4.18;2.85;;;;;;;;;;5056671;28;20421;-57
2024/02/20 00:48:44;;;;;;;3.80;2.47;;;;;;;;;;5056621;28;20470;-57
2024/02/20 00:51:12;;;;;;;3.65;2.88;;;;;;;;;;5056306;28;20143;-57
2024/02/20 00:53:38;;;;;;;5.68;2.85;;;;;;;;;;5057249;28;20029;-56
2024/02/20 00:56:04;;;;;;;3.70;2.00;;;;;;;;;;5056404;28;20060;-57
2024/02/20 00:58:30;;;;;;;3.00;2.13;;;;;;;;;;5056931;28;20037;-57
2024/02/20 01:00:56;;;;;;;3.60;2.28;;;;;;;;;;5056334;28;20029;-55
2024/02/20 01:03:23;;;;;;;3.42;2.33;;;;;;;;;;5056840;28;20025;-57
2024/02/20 01:05:50;;;;;;;3.53;2.13;;;;;;;;;;5055961;28;20491;-57
2024/02/20 01:08:15;;;;;;;3.58;1.83;;;;;;;;;;5056536;28;20021;-57
2024/02/20 01:10:41;;;;;;;5.72;2.08;;;;;;;;;;5056664;28;20043;-57
2024/02/20 01:13:08;;;;;;;2.35;1.70;;;;;;;;;;5055871;28;20030;-57
2024/02/20 01:15:34;;;;;;;3.13;2.22;;;;;;;;;;5056077;28;20033;-57
2024/02/20 01:18:00;;;;;;;3.75;2.22;;;;;;;;;;5056627;28;20458;-57
2024/02/20 01:20:27;;;;;;;4.03;1.98;;;;;;;;;;5055942;28;20040;-57
2024/02/20 01:22:53;;;;;;;3.75;1.70;;;;;;;;;;5055843;28;20033;-57
2024/02/20 01:25:19;;;;;;;3.08;2.17;;;;;;;;;;5056185;28;20025;-57
2024/02/20 01:27:46;;;;;;;3.15;1.63;;;;;;;;;;5055956;28;20151;-57
2024/02/20 01:30:12;;;;;;;6.03;2.13;;;;;;;;;;5056608;28;20036;-57
2024/02/20 01:32:38;;;;;;;2.65;1.50;;;;;;;;;;5055698;28;20478;-57
2024/02/20 01:35:05;;;;;;;2.92;1.92;;;;;;;;;;5055674;28;20035;-57
2024/02/20 01:37:31;;;;;;;3.80;2.42;;;;;;;;;;5055342;28;20037;-57
2024/02/20 01:39:56;;;;;;;5.20;2.47;;;;;;;;;;5055866;28;20106;-57
2024/02/20 01:42:22;;;;;;;4.82;2.47;;;;;;;;;;5055620;28;20021;-57
2024/02/20 01:44:48;;;;;;;4.75;2.60;;;;;;;;;;5055499;28;20060;-57
2024/02/20 01:47:14;;;;;;;5.35;3.28;;;;;;;;;;5056341;28;20036;-56
2024/02/20 01:49:41;;;;;;;2.80;2.00;;;;;;;;;;5056137;28;20032;-57
2024/02/20 01:52:12;;;;;;;3.42;2.05;;;;;;;;;;5055205;28;20025;-57
2024/02/20 01:54:38;;;;;;;3.53;2.30;;;;;;;;;;5055974;28;20025;-57
2024/02/20 01:57:06;;;;;;;3.17;2.05;;;;;;;;;;5055721;28;20045;-57
2024/02/20 01:59:32;;;;;;;3.35;2.25;;;;;;;;;;5055441;28;20040;-57
2024/02/20 02:01:58;;;;;;;4.47;2.40;;;;;;;;;;5055810;28;20025;-57
2024/02/20 02:04:24;;;;;;;4.65;2.72;;;;;;;;;;5055788;28;20036;-57
2024/02/20 02:06:50;;;;;;;4.85;2.00;;;;;;;;;;5055161;28;20078;-56
2024/02/20 02:09:16;;;;;;;4.95;2.58;;;;;;;;;;5055990;28;20390;-56
2024/02/20 02:11:42;;;;;;;2.67;2.08;;;;;;;;;;5054814;28;20139;-57
2024/02/20 02:14:09;;;;;;;8.07;2.40;;;;;;;;;;5055034;28;20021;-57
2024/02/20 02:16:35;;;;;;;3.78;2.53;;;;;;;;;;5054861;28;20483;-57
2024/02/20 02:19:02;;;;;;;3.22;2.20;;;;;;;;;;5054808;28;20090;-57
2024/02/20 02:21:28;;;;;;;4.72;1.90;;;;;;;;;;5054221;28;20028;-57
2024/02/20 02:23:54;;;;;;;3.88;2.45;;;;;;;;;;5054956;28;20140;-57
2024/02/20 02:26:20;;;;;;;3.25;2.40;;;;;;;;;;5054800;28;20025;-57
2024/02/20 02:28:47;;;;;;;4.05;2.40;;;;;;;;;;5055265;28;20098;-57
2024/02/20 02:31:13;;;;;;;2.83;1.95;;;;;;;;;;5055171;28;20040;-57
2024/02/20 02:33:39;;;;;;;3.42;2.38;;;;;;;;;;5054695;28;20146;-56
2024/02/20 02:36:05;;;;;;;5.53;2.78;;;;;;;;;;5054516;28;20141;-57
2024/02/20 02:38:31;;;;;;;4.07;2.42;;;;;;;;;;5055218;28;20033;-57
2024/02/20 02:40:59;;;;;;;2.92;2.13;;;;;;;;;;5055049;28;20033;-57
2024/02/20 02:43:25;;;;;;;6.38;2.72;;;;;;;;;;5054405;28;20128;-57
2024/02/20 02:45:54;;;;;;;5.45;1.83;;;;;;;;;;5054373;28;20057;-57
2024/02/20 02:48:19;;;;;;;6.43;2.83;;;;;;;;;;5054936;28;20020;-57
2024/02/20 02:50:45;;;;;;;6.43;2.47;;;;;;;;;;5054882;28;20025;-57
2024/02/20 02:53:11;;;;;;;8.95;2.95;;;;;;;;;;5054772;28;20025;-57
2024/02/20 02:55:37;;;;;;;4.90;2.63;;;;;;;;;;5054179;28;20029;-57
2024/02/20 02:58:05;;;;;;;5.63;2.33;;;;;;;;;;5055131;28;20045;-56
2024/02/20 03:00:31;;;;;;;6.85;2.55;;;;;;;;;;5054029;28;20037;-57
2024/02/20 03:02:57;;;;;;;3.95;2.30;;;;;;;;;;5054145;28;20520;-56
2024/02/20 03:05:23;;;;;;;5.57;2.42;;;;;;;;;;5054549;28;20116;-56
2024/02/20 03:07:49;;;;;;;5.47;3.05;;;;;;;;;;5054570;28;20106;-56
2024/02/20 03:10:15;;;;;;;5.53;2.10;;;;;;;;;;5054533;28;20489;-57
2024/02/20 03:12:41;;;;;;;10.63;3.58;;;;;;;;;;5053660;28;20475;-56
2024/02/20 03:15:07;;;;;;;6.45;2.42;;;;;;;;;;5053878;28;20021;-56
2024/02/20 03:17:33;;;;;;;6.45;2.45;;;;;;;;;;5054416;28;20032;-57
2024/02/20 03:19:59;;;;;;;6.10;2.53;;;;;;;;;;5054326;28;20037;-57
2024/02/20 03:22:26;;;;;;;7.68;2.45;;;;;;;;;;5054332;28;20363;-57
2024/02/20 03:24:52;;;;;;;6.07;3.10;;;;;;;;;;5053781;28;20036;-56
2024/02/20 03:27:18;;;;;;;10.95;2.75;;;;;;;;;;5053711;28;20367;-56
2024/02/20 03:29:45;;;;;;;3.22;2.17;;;;;;;;;;5053329;28;20537;-56
2024/02/20 03:32:11;;;;;;;7.05;2.28;;;;;;;;;;5053683;28;20028;-57
2024/02/20 03:34:37;;;;;;;4.65;3.13;;;;;;;;;;5053660;28;20345;-57
2024/02/20 03:37:03;;;;;;;5.80;2.28;;;;;;;;;;5053865;28;20383;-56
2024/02/20 03:39:29;;;;;;;10.05;2.47;;;;;;;;;;5054406;28;20037;-57
2024/02/20 03:41:55;;;;;;;5.93;2.92;;;;;;;;;;5053561;28;20036;-57
2024/02/20 03:44:21;;;;;;;5.97;2.70;;;;;;;;;;5053563;28;20086;-56
2024/02/20 03:46:47;;;;;;;3.15;2.03;;;;;;;;;;5053539;28;20059;-56
2024/02/20 03:49:13;;;;;;;5.55;2.58;;;;;;;;;;5054082;28;20033;-56
2024/02/20 03:51:39;;;;;;;5.40;2.63;;;;;;;;;;5053973;28;20152;-56
2024/02/20 03:54:05;;;;;;;4.25;2.45;;;;;;;;;;5054236;28;20116;-57
2024/02/20 03:56:31;;;;;;;3.15;2.25;;;;;;;;;;5053747;28;20457;-56
2024/02/20 03:58:57;;;;;;;3.83;2.40;;;;;;;;;;5054153;28;20122;-56
2024/02/20 04:01:23;;;;;;;4.43;2.33;;;;;;;;;;5053166;28;20487;-56
2024/02/20 04:03:49;;;;;;;4.07;1.88;;;;;;;;;;5054151;28;20017;-57
2024/02/20 04:06:16;;;;;;;4.80;2.30;;;;;;;;;;5053444;28;20028;-57
2024/02/20 04:08:42;;;;;;;3.72;2.22;;;;;;;;;;5053662;28;20029;-57
2024/02/20 04:11:08;;;;;;;6.63;3.13;;;;;;;;;;5053611;28;20025;-57
2024/02/20 04:13:34;;;;;;;5.15;1.88;;;;;;;;;;5053258;28;20455;-57
2024/02/20 04:16:00;;;;;;;5.65;2.05;;;;;;;;;;5053261;28;20079;-57
2024/02/20 04:18:26;;;;;;;5.30;1.77;;;;;;;;;;5053818;28;20036;-56
2024/02/20 04:20:52;;;;;;;4.20;2.25;;;;;;;;;;5053629;28;20033;-56
2024/02/20 04:23:18;;;;;;;3.42;1.90;;;;;;;;;;5053090;28;20025;-57
2024/02/20 04:25:44;;;;;;;3.25;1.73;;;;;;;;;;5053093;28;20078;-56
2024/02/20 04:28:10;;;;;;;6.82;2.28;;;;;;;;;;5053486;28;20033;-56
2024/02/20 04:30:39;;;;;;;6.68;2.50;;;;;;;;;;5053147;28;20075;-56
2024/02/20 04:33:05;;;;;;;3.55;1.83;;;;;;;;;;5053101;28;20036;-57
2024/02/20 04:35:31;;;;;;;5.32;2.35;;;;;;;;;;5053089;28;20048;-57
2024/02/20 04:37:57;;;;;;;8.80;2.50;;;;;;;;;;5053625;28;20029;-56
2024/02/20 04:40:24;;;;;;;3.78;1.70;;;;;;;;;;5053480;28;20440;-56
2024/02/20 04:42:50;;;;;;;6.40;1.98;;;;;;;;;;5053762;28;20033;-57
2024/02/20 04:45:16;;;;;;;5.97;1.40;;;;;;;;;;5056712;28;20031;-57
2024/02/20 04:47:42;;;;;;;4.25;1.63;;;;;;;;;;5057480;28;20020;-57
2024/02/20 04:50:08;;;;;;;11.38;2.85;;;;;;;;;;5057398;28;20352;-56
2024/02/20 04:52:34;;;;;;;7.35;2.60;;;;;;;;;;5056592;28;20032;-56
2024/02/20 04:55:02;;;;;;;6.68;1.88;;;;;;;;;;5056430;28;20021;-56
2024/02/20 04:57:28;;;;;;;3.95;1.52;;;;;;;;;;5056594;28;20081;-57
2024/02/20 04:59:55;;;;;;;3.90;1.85;;;;;;;;;;5056022;28;20390;-57
2024/02/20 05:02:21;;;;;;;7.22;2.33;;;;;;;;;;5057065;28;20040;-59
2024/02/20 05:04:46;;;;;;;10.52;2.22;;;;;;;;;;5056662;28;20025;-59
2024/02/20 05:07:12;;;;;;;4.10;1.80;;;;;;;;;;5056349;28;20047;-59
2024/02/20 05:09:38;;;;;;;6.38;2.50;;;;;;;;;;5057183;28;20029;-59
2024/02/20 05:12:04;;;;;;;7.50;1.95;;;;;;;;;;5056570;28;20371;-59
2024/02/20 05:14:30;;;;;;;6.30;1.70;;;;;;;;;;5056197;28;20118;-57
2024/02/20 05:16:56;;;;;;;12.52;2.88;;;;;;;;;;5056730;28;20038;-59
2024/02/20 05:19:22;;;;;;;7.03;2.20;;;;;;;;;;5056011;28;20033;-59
2024/02/20 05:21:48;;;;;;;10.85;2.75;;;;;;;;;;5055757;28;20474;-58
2024/02/20 05:24:14;;;;;;;2.25;1.17;;;;;;;;;;5056287;28;20025;-58
2024/02/20 05:26:40;;;;;;;4.65;2.40;;;;;;;;;;5056048;28;20032;-58
2024/02/20 05:29:06;;;;;;;8.05;1.67;;;;;;;;;;5055914;28;20051;-59
2024/02/20 05:31:35;;;;;;;8.65;2.33;;;;;;;;;;5055967;28;20029;-61
2024/02/20 05:34:01;;;;;;;3.75;2.38;;;;;;;;;;5055482;28;20053;-60
2024/02/20 05:36:31;;;;;;;5.30;2.05;;;;;;;;;;5055778;28;20025;-59
2024/02/20 05:39:05;;;;;;;6.70;1.83;;;;;;;;;;5056254;28;20364;-58
2024/02/20 05:41:31;;;;;;;9.00;2.25;;;;;;;;;;5056262;28;20116;-58
2024/02/20 05:43:58;;;;;;;8.18;1.73;;;;;;;;;;5055630;28;20128;-59
2024/02/20 05:46:28;;;;;;;6.72;1.92;;;;;;;;;;5055593;28;20417;-59
2024/02/20 05:48:54;;;;;;;3.35;1.40;;;;;;;;;;5056107;28;20067;-59
2024/02/20 05:51:20;;;;;;;5.45;1.90;;;;;;;;;;5055510;28;20436;-59
2024/02/20 05:53:46;;;;;;;7.75;2.22;;;;;;;;;;5055468;28;20052;-59
2024/02/20 05:56:12;;;;;;;12.00;1.90;;;;;;;;;;5054051;28;20072;-59
2024/02/20 05:58:38;;;;;;;5.25;1.50;;;;;;;;;;5055738;28;20032;-59
2024/02/20 06:01:08;;;;;;;7.25;2.13;;;;;;;;;;5054992;28;20029;-58
2024/02/20 06:03:34;;;;;;;8.35;1.92;;;;;;;;;;5055437;28;20033;-58
2024/02/20 06:06:00;;;;;;;4.80;2.20;;;;;;;;;;5054807;28;20021;-58
2024/02/20 06:08:26;;;;;;;8.75;1.38;;;;;;;;;;5055948;28;20063;-58
2024/02/20 06:10:52;;;;;;;4.13;2.00;;;;;;;;;;5055566;28;20059;-58
2024/02/20 06:13:18;;;;;;;6.57;1.83;;;;;;;;;;5055816;28;20344;-59
2024/02/20 06:15:44;;;;;;;6.30;2.20;;;;;;;;;;5055701;28;20029;-58
2024/02/20 06:18:10;;;;;;;4.13;2.15;;;;;;;;;;5055138;28;20070;-59
2024/02/20 06:20:36;;;;;;;6.53;2.03;;;;;;;;;;5055636;28;20029;-58
2024/02/20 06:23:02;;;;;;;1.88;1.15;;;;;;;;;;5055222;28;20056;-58
2024/02/20 06:25:28;;;;;;;13.52;2.00;;;;;;;;;;5054536;28;20063;-56
2024/02/20 06:27:55;;;;;;;4.07;1.98;;;;;;;;;;5055235;28;20021;-55
2024/02/20 06:30:22;;;;;;;7.07;2.03;;;;;;;;;;5054430;28;20433;-56
2024/02/20 06:33:00;;;;;;;8.45;1.58;;;;;;;;;;5054906;28;20378;-56
2024/02/20 06:35:26;;;;;;;9.55;2.28;;;;;;;;;;5054686;28;20431;-55
2024/02/20 06:37:52;;;;;;;9.98;2.35;;;;;;;;;;5055229;28;20052;-52
2024/02/20 06:40:18;;;;;;;8.32;2.38;;;;;;;;;;5054145;28;20540;-56
2024/02/20 06:42:44;;;;;;;4.95;1.95;;;;;;;;;;5055048;28;20071;-57
2024/02/20 06:45:10;;;;;;;5.50;2.08;;;;;;;;;;5055078;28;20021;-56
2024/02/20 06:47:36;;;;;;;5.00;1.83;;;;;;;;;;5054416;28;20029;-57
2024/02/20 06:50:03;;;;;;;6.80;2.25;;;;;;;;;;5054887;28;20029;-57
2024/02/20 06:52:29;;;;;;;6.07;2.33;;;;;;;;;;5054199;28;20029;-56
2024/02/20 06:54:55;;;;;;;8.70;2.70;;;;;;;;;;5054261;28;20047;-57
2024/02/20 06:57:21;;;;;;;11.13;2.67;;;;;;;;;;5054047;28;20060;-56
2024/02/20 06:59:47;;;;;;;6.95;1.63;;;;;;;;;;5054077;28;20406;-58
2024/02/20 07:02:13;;;;;;;4.85;2.20;;;;;;;;;;5054413;28;20036;-57
2024/02/20 07:04:40;;;;;;;6.10;2.08;;;;;;;;;;5053994;28;20025;-56
2024/02/20 07:07:06;;;;;;;10.43;2.55;;;;;;;;;;5053697;28;20037;-57
2024/02/20 07:09:32;;;;;;;9.10;2.45;;;;;;;;;;5054325;28;20039;-57
2024/02/20 07:11:58;;;;;;;8.40;2.42;;;;;;;;;;5053973;28;20029;-55
2024/02/20 07:14:24;;;;;;;9.35;2.90;;;;;;;;;;5053866;28;20021;-56
2024/02/20 07:16:50;;;;;;;6.88;2.40;;;;;;;;;;5053876;28;20025;-57
2024/02/20 07:19:16;;;;;;;4.43;2.13;;;;;;;;;;5054371;28;20044;-57
2024/02/20 07:21:42;;;;;;;11.43;2.55;;;;;;;;;;5053625;28;20402;-55
2024/02/20 07:24:07;;;;;;;14.10;2.92;;;;;;;;;;5053785;28;20021;-57
2024/02/20 07:26:33;;;;;;;6.78;3.10;;;;;;;;;;5054340;28;20030;-57
2024/02/20 07:28:59;;;;;;;9.45;2.08;;;;;;;;;;5054006;28;20032;-55
2024/02/20 07:31:25;;;;;;;9.20;2.58;;;;;;;;;;5053889;28;20075;-56
2024/02/20 07:33:52;;;;;;;9.23;2.42;;;;;;;;;;5053654;28;20029;-57
2024/02/20 07:36:18;;;;;;;6.07;2.50;;;;;;;;;;5053473;28;20524;-56
2024/02/20 07:38:45;;;;;;;7.32;1.63;;;;;;;;;;5053513;28;20025;-56
2024/02/20 07:41:11;;;;;;;9.18;2.22;;;;;;;;;;5053702;28;20036;-56
2024/02/20 07:43:40;;;;;;;4.97;2.10;;;;;;;;;;5053588;28;20029;-57
2024/02/20 07:46:06;;;;;;;3.63;1.85;;;;;;;;;;5054071;28;20028;-56
2024/02/20 07:48:32;;;;;;;6.38;2.13;;;;;;;;;;5054183;28;20029;-57
2024/02/20 07:50:58;;;;;;;3.88;2.15;;;;;;;;;;5054495;28;20028;-56
2024/02/20 07:53:24;;;;;;;8.15;2.95;;;;;;;;;;5054230;28;20091;-57
2024/02/20 07:55:50;;;;;;;3.17;1.45;;;;;;;;;;5053424;28;20405;-57
2024/02/20 07:58:16;;;;;;;6.03;1.80;;;;;;;;;;5054100;28;20029;-57
2024/02/20 08:00:42;;;;;;;9.38;1.92;;;;;;;;;;5053374;28;20040;-54
2024/02/20 08:03:08;;;;;;;3.45;1.67;;;;;;;;;;5054178;28;20333;-56
2024/02/20 08:05:34;;;;;;;4.72;1.92;;;;;;;;;;5053235;28;20040;-56
2024/02/20 08:08:02;;;;;;;8.07;2.65;;;;;;;;;;5053863;28;20036;-57
2024/02/20 08:10:28;;;;;;;9.05;2.85;;;;;;;;;;5053387;28;20037;-57
2024/02/20 08:12:54;;;;;;;5.80;1.52;;;;;;;;;;5053034;28;20025;-58
2024/02/20 08:15:20;;;;;;;6.45;2.13;;;;;;;;;;5053329;28;20344;-57
2024/02/20 08:17:45;;;;;;;7.07;2.42;;;;;;;;;;5053336;28;20044;-57
2024/02/20 08:20:11;;;;;;;5.30;1.30;;;;;;;;;;5057147;28;20029;-57
2024/02/20 08:22:37;;;;;;;5.38;1.65;;;;;;;;;;5057504;28;20060;-57
2024/02/20 08:25:04;;;;;;;8.20;2.50;;;;;;;;;;5057179;28;20025;-58
2024/02/20 08:27:30;;;;;;;6.38;2.47;;;;;;;;;;5057966;28;20158;-58
2024/02/20 08:29:56;;;;;;;9.68;2.40;;;;;;;;;;5057800;28;20052;-58
2024/02/20 08:32:22;;;;;;;10.07;2.88;;;;;;;;;;5057121;28;20055;-57
2024/02/20 08:34:48;;;;;;;6.07;2.35;;;;;;;;;;5057021;28;20052;-58
2024/02/20 08:37:14;;;;;;;7.75;2.85;;;;;;;;;;5057506;28;20083;-57
2024/02/20 08:39:40;;;;;;;16.77;2.45;;;;;;;;;;5057462;28;20029;-58
2024/02/20 08:42:06;;;;;;;7.53;2.00;;;;;;;;;;5057368;28;20071;-57
2024/02/20 08:44:32;;;;;;;8.82;2.25;;;;;;;;;;5057329;28;20067;-57
2024/02/20 08:46:58;;;;;;;4.68;2.10;;;;;;;;;;5056552;28;20477;-57
2024/02/20 08:49:24;;;;;;;6.63;2.38;;;;;;;;;;5057606;28;20061;-55
2024/02/20 08:51:50;;;;;;;4.85;2.22;;;;;;;;;;5057226;28;20409;-57
2024/02/20 08:54:16;;;;;;;4.78;2.72;;;;;;;;;;5056642;28;20512;-57
2024/02/20 08:56:41;;;;;;;8.10;3.33;;;;;;;;;;5056366;28;20041;-57
2024/02/20 08:59:08;;;;;;;5.15;2.33;;;;;;;;;;5056472;28;20115;-57
2024/02/20 09:01:37;;;;;;;5.30;1.80;;;;;;;;;;5056525;28;20021;-57
2024/02/20 09:04:03;;;;;;;12.27;2.65;;;;;;;;;;5056469;28;20025;-57
2024/02/20 09:06:29;;;;;;;10.52;2.88;;;;;;;;;;5056469;28;20111;-57
2024/02/20 09:08:55;;;;;;;3.92;2.58;;;;;;;;;;5056384;28;20166;-57
2024/02/20 09:11:21;;;;;;;7.55;2.47;;;;;;;;;;5056372;28;20025;-57
2024/02/20 09:13:47;;;;;;;4.03;2.40;;;;;;;;;;5056324;28;20029;-58
2024/02/20 09:16:14;;;;;;;5.40;3.05;;;;;;;;;;5056877;28;20033;-57
2024/02/20 09:18:40;;;;;;;18.05;3.03;;;;;;;;;;5056470;28;20409;-58
2024/02/20 09:21:09;;;;;;;4.57;1.70;;;;;;;;;;5056136;28;20025;-58
2024/02/20 09:23:37;;;;;;;7.97;3.08;;;;;;;;;;5056017;28;20033;-57
2024/02/20 09:26:04;;;;;;;9.43;3.03;;;;;;;;;;5056074;28;20063;-57
2024/02/20 09:28:30;;;;;;;10.27;2.20;;;;;;;;;;5056368;28;20032;-55
2024/02/20 09:30:56;;;;;;;5.88;2.10;;;;;;;;;;5055967;28;20370;-57
2024/02/20 09:33:22;;;;;;;5.63;2.53;;;;;;;;;;5056512;28;20025;-55
2024/02/20 09:35:49;;;;;;;5.85;2.15;;;;;;;;;;5055551;28;20075;-56
2024/02/20 09:38:16;;;;;;;10.57;2.80;;;;;;;;;;5056378;28;20021;-56
2024/02/20 09:40:42;;;;;;;9.60;2.42;;;;;;;;;;5056403;28;20041;-58
2024/02/20 09:43:09;;;;;;;10.43;2.92;;;;;;;;;;5055662;28;20021;-58
2024/02/20 09:45:40;;;;;;;5.25;2.65;;;;;;;;;;5055176;28;20033;-55
2024/02/20 09:48:07;;;;;;;6.00;3.30;;;;;;;;;;5055684;28;20036;-57
2024/02/20 09:50:33;;;;;;;8.02;2.10;;;;;;;;;;5055562;28;20025;-56
2024/02/20 09:52:59;;;;;;;8.23;2.78;;;;;;;;;;5055437;28;20029;-57
2024/02/20 09:55:26;;;;;;;7.68;3.10;;;;;;;;;;5055336;28;20037;-57
2024/02/20 09:57:52;;;;;;;9.38;2.58;;;;;;;;;;5055710;28;20060;-56
2024/02/20 10:00:19;;;;;;;7.75;3.15;;;;;;;;;;5055324;28;20029;-57
2024/02/20 10:02:48;;;;;;;10.43;2.58;;;;;;;;;;5055285;28;20025;-58
2024/02/20 10:05:16;;;;;;;13.45;2.75;;;;;;;;;;5055352;28;20127;-57
2024/02/20 10:07:42;;;;;;;3.63;1.85;;;;;;;;;;5055217;28;20025;-54
2024/02/20 10:10:09;;;;;;;9.32;2.80;;;;;;;;;;5055770;28;20029;-56
2024/02/20 10:12:39;;;;;;;4.97;1.73;;;;;;;;;;5055122;28;20021;-56
2024/02/20 10:15:08;;;;;;;10.07;3.00;;;;;;;;;;5055112;28;20079;-57
2024/02/20 10:17:35;;;;;;;5.63;2.47;;;;;;;;;;5055627;28;20120;-58
2024/02/20 10:20:05;;;;;;;8.77;2.83;;;;;;;;;;5055421;28;20029;-58
2024/02/20 10:22:31;;;;;;;12.57;3.33;;;;;;;;;;5055080;28;20455;-58
2024/02/20 10:25:12;;;;;;;11.30;3.13;;;;;;;;;;5055740;28;20104;-57
2024/02/20 10:27:38;;;;;;;5.50;2.25;;;;;;;;;;5055678;28;20029;-57
2024/02/20 10:30:05;;;;;;;7.05;2.00;;;;;;;;;;5054655;28;20368;-58
2024/02/20 10:32:36;;;;;;;6.60;2.42;;;;;;;;;;5054738;28;20033;-57
2024/02/20 10:35:03;;;;;;;9.07;2.50;;;;;;;;;;5055040;28;20029;-55
2024/02/20 10:37:29;;;;;;;5.25;2.30;;;;;;;;;;5054761;28;20032;-57
2024/02/20 10:40:05;;;;;;;6.30;2.70;;;;;;;;;;5055114;28;20064;-58
2024/02/20 10:42:33;;;;;;;6.25;2.40;;;;;;;;;;5053995;28;20025;-58
2024/02/20 10:44:59;;;;;;;9.98;2.72;;;;;;;;;;5054531;28;20370;-57
2024/02/20 10:47:26;;;;;;;8.32;2.35;;;;;;;;;;5054801;28;20029;-57
2024/02/20 10:49:58;;;;;;;5.32;1.77;;;;;;;;;;5055099;28;20083;-57
2024/02/20 10:52:25;;;;;;;4.10;1.70;;;;;;;;;;5055044;28;20071;-57
2024/02/20 10:54:51;;;;;;;7.40;2.45;;;;;;;;;;5055140;28;20477;-58
2024/02/20 10:57:18;;;;;;;4.13;1.88;;;;;;;;;;5053859;28;20388;-58
2024/02/20 10:59:44;;;;;;;8.70;2.03;;;;;;;;;;5053951;28;20029;-57
2024/02/20 11:02:10;;;;;;;8.27;2.40;;;;;;;;;;5054272;28;20017;-58
2024/02/20 11:04:36;;;;;;;4.28;1.98;;;;;;;;;;5054085;28;20112;-58
2024/02/20 11:07:05;;;;;;;6.40;2.40;;;;;;;;;;5054067;28;20025;-57
2024/02/20 11:09:31;;;;;;;6.65;2.05;;;;;;;;;;5054474;28;20033;-57
2024/02/20 11:12:05;;;;;;;2.90;1.35;;;;;;;;;;5054108;28;20025;-57
2024/02/20 11:14:31;;;;;;;7.57;2.08;;;;;;;;;;5054949;28;20096;-56
2024/02/20 11:16:57;;;;;;;7.90;2.35;;;;;;;;;;5053695;28;20079;-55
2024/02/20 11:19:25;;;;;;;4.72;2.15;;;;;;;;;;5054302;28;20037;-52
2024/02/20 11:21:51;;;;;;;12.10;3.28;;;;;;;;;;5054460;28;20025;-56
2024/02/20 11:24:18;;;;;;;5.82;1.92;;;;;;;;;;5054386;28;20497;-57
2024/02/20 11:26:48;;;;;;;7.75;2.78;;;;;;;;;;5053903;28;20029;-55
2024/02/20 11:29:17;;;;;;;17.50;2.92;;;;;;;;;;5053930;28;20063;-58
2024/02/20 11:31:43;;;;;;;9.60;2.47;;;;;;;;;;5053605;28;20043;-54
2024/02/20 11:34:21;;;;;;;16.55;2.92;;;;;;;;;;5053784;28;20460;-58
2024/02/20 11:36:47;;;;;;;2.55;1.02;;;;;;;;;;5054582;28;20348;-58
2024/02/20 11:39:16;;;;;;;6.63;2.08;;;;;;;;;;5054226;28;20087;-56
2024/02/20 11:41:44;;;;;;;5.95;2.00;;;;;;;;;;5054550;28;20032;-58
2024/02/20 11:44:10;;;;;;;5.60;2.25;;;;;;;;;;5053710;28;20079;-57
2024/02/20 11:46:36;;;;;;;7.25;1.92;;;;;;;;;;5054188;28;20166;-56
2024/02/20 11:49:02;;;;;;;4.70;1.50;;;;;;;;;;5054470;28;20351;-55
2024/02/20 11:51:28;;;;;;;2.63;1.17;;;;;;;;;;5053981;28;20029;-56
2024/02/20 11:54:07;;;;;;;6.82;2.28;;;;;;;;;;5055968;28;20039;-56
2024/02/20 11:56:33;;;;;;;7.47;1.85;;;;;;;;;;5058365;28;20076;-55
2024/02/20 11:59:00;;;;;;;4.55;1.73;;;;;;;;;;5057652;28;20446;-56
2024/02/20 12:01:26;;;;;;;4.00;1.73;;;;;;;;;;5057753;28;20056;-56
2024/02/20 12:03:52;;;;;;;6.07;1.60;;;;;;;;;;5057532;28;20071;-56
2024/02/20 12:06:26;;;;;;;3.70;1.42;;;;;;;;;;5057630;28;20025;-55
2024/02/20 12:08:55;;;;;;;4.80;1.42;;;;;;;;;;5057574;28;20027;-56
2024/02/20 12:11:22;;;;;;;3.17;1.67;;;;;;;;;;5057445;28;20052;-54
2024/02/20 12:13:50;;;;;;;8.05;2.35;;;;;;;;;;5057696;28;20024;-56
2024/02/20 12:16:25;;;;;;;5.35;1.98;;;;;;;;;;5057414;28;20025;-56
2024/02/20 12:18:52;;;;;;;7.03;1.65;;;;;;;;;;5057800;28;20367;-56
2024/02/20 12:21:22;;;;;;;6.00;1.65;;;;;;;;;;5057269;28;20159;-56
2024/02/20 12:23:53;;;;;;;5.55;1.58;;;;;;;;;;5057198;28;20482;-55
2024/02/20 12:26:19;;;;;;;;;;;;;;;;;;5057951;28;20047;-55
2024/02/20 12:28:46;;;;;;;3.38;1.52;;;;;;;;;;5057200;28;19905;-56
2024/02/20 12:31:12;;;;;;;4.88;1.50;;;;;;;;;;5057377;28;20021;-57
2024/02/20 12:33:38;;;;;;;7.20;1.40;;;;;;;;;;5056678;28;20112;-56
2024/02/20 12:36:04;;;;;;;5.68;1.58;;;;;;;;;;5056711;28;20547;-56
2024/02/20 12:38:30;;;;;;;7.65;1.77;;;;;;;;;;5056995;28;20601;-56
2024/02/20 12:40:56;;;;;;;4.20;1.52;;;;;;;;;;5056743;28;20162;-56
2024/02/20 12:43:22;;;;;;;4.32;1.58;;;;;;;;;;5057319;28;20017;-55
2024/02/20 12:45:48;;;;;;;3.85;1.73;;;;;;;;;;5056882;28;20033;-56
2024/02/20 12:48:14;;;;;;;3.22;1.25;;;;;;;;;;5056641;28;20029;-56
2024/02/20 12:50:40;;;;;;;6.55;2.15;;;;;;;;;;5056618;28;20028;-56
2024/02/20 12:53:07;;;;;;;6.22;1.48;;;;;;;;;;5056254;28;20371;-56
2024/02/20 12:55:37;;;;;;;4.80;1.35;;;;;;;;;;5057076;28;20474;-56
2024/02/20 12:58:03;;;;;;;4.22;1.15;;;;;;;;;;5057482;28;20056;-56
2024/02/20 13:00:29;;;;;;;2.60;1.10;;;;;;;;;;5056534;28;20378;-55
2024/02/20 13:02:57;;;;;;;3.88;1.55;;;;;;;;;;5056503;28;20027;-55
2024/02/20 13:05:24;;;;;;;4.45;1.77;;;;;;;;;;5055887;28;20087;-56
2024/02/20 13:07:51;;;;;;;4.47;1.30;;;;;;;;;;5056267;28;20027;-56
2024/02/20 13:10:17;;;;;;;4.03;1.30;;;;;;;;;;5055903;28;20422;-56
2024/02/20 13:12:43;;;;;;;4.13;1.38;;;;;;;;;;5057070;28;20043;-56
2024/02/20 13:15:09;;;;;;;3.08;1.42;;;;;;;;;;5056478;28;20455;-56
2024/02/20 13:17:35;;;;;;;3.00;1.77;;;;;;;;;;5056617;28;20473;-56
2024/02/20 13:20:01;;;;;;;5.10;1.35;;;;;;;;;;5056459;28;20124;-55
2024/02/20 13:22:29;;;;;;;4.55;2.08;;;;;;;;;;5055585;28;20536;-57
2024/02/20 13:24:55;;;;;;;6.10;1.83;;;;;;;;;;5056073;28;20025;-56
2024/02/20 13:27:22;;;;;;;3.20;1.70;;;;;;;;;;5056533;28;20036;-57
2024/02/20 13:29:49;;;;;;;7.70;2.00;;;;;;;;;;5056583;28;20060;-57
2024/02/20 13:32:15;;;;;;;3.92;1.63;;;;;;;;;;5056225;28;20036;-57
2024/02/20 13:34:41;;;;;;;4.47;2.15;;;;;;;;;;5056420;28;20025;-57
2024/02/20 13:37:07;;;;;;;2.92;1.65;;;;;;;;;;5055861;28;20025;-57
2024/02/20 13:39:33;;;;;;;5.85;1.90;;;;;;;;;;5056045;28;20425;-56
2024/02/20 13:41:59;;;;;;;2.90;1.10;;;;;;;;;;5055670;28;20106;-57
2024/02/20 13:44:25;;;;;;;7.80;2.05;;;;;;;;;;5055366;28;20064;-56
2024/02/20 13:46:54;;;;;;;7.13;2.15;;;;;;;;;;5055332;28;20083;-57
2024/02/20 13:49:23;;;;;;;3.00;1.52;;;;;;;;;;5056015;28;20151;-56
2024/02/20 13:51:51;;;;;;;4.07;2.33;;;;;;;;;;5055877;28;20062;-57
2024/02/20 13:54:19;;;;;;;5.28;2.03;;;;;;;;;;5055602;28;20467;-57
2024/02/20 13:56:45;;;;;;;6.72;1.70;;;;;;;;;;5055461;28;20053;-56
2024/02/20 13:59:22;;;;;;;3.42;1.80;;;;;;;;;;5055542;28;20032;-57
2024/02/20 14:01:49;;;;;;;3.67;1.85;;;;;;;;;;5055294;28;20028;-57
2024/02/20 14:04:15;;;;;;;9.32;2.00;;;;;;;;;;5055260;28;20115;-56
2024/02/20 14:06:41;;;;;;;5.30;1.95;;;;;;;;;;5055166;28;20116;-55
2024/02/20 14:11:52;;;;;;;5.43;2.53;;;;;;;;;;5055566;28;20062;-56
2024/02/20 14:14:18;;;;;;;5.80;2.45;;;;;;;;;;5055412;28;20463;-57
2024/02/20 14:16:44;;;;;;;6.22;2.50;;;;;;;;;;5054100;28;20379;-57
2024/02/20 14:19:10;;;;;;;5.88;2.20;;;;;;;;;;5055289;28;20071;-54
2024/02/20 14:21:36;;;;;;;4.93;1.77;;;;;;;;;;5054928;28;20374;-55
2024/02/20 14:24:02;;;;;;;3.72;1.67;;;;;;;;;;5054768;28;20103;-57
2024/02/20 14:26:28;;;;;;;3.72;1.80;;;;;;;;;;5054699;28;20071;-53
2024/02/20 14:28:54;;;;;;;6.30;1.52;;;;;;;;;;5055572;28;20140;-57
2024/02/20 14:31:20;;;;;;;5.18;1.88;;;;;;;;;;5054697;28;20471;-57
2024/02/20 14:33:46;;;;;;;2.22;1.25;;;;;;;;;;5054352;28;20060;-58
2024/02/20 14:36:12;;;;;;;4.68;1.90;;;;;;;;;;5054625;28;20017;-57
2024/02/20 14:38:38;;;;;;;3.78;1.70;;;;;;;;;;5054687;28;20024;-58
2024/02/20 14:41:04;;;;;;;2.40;1.38;;;;;;;;;;5054439;28;20379;-56
2024/02/20 14:43:30;;;;;;;5.28;2.67;;;;;;;;;;5054232;28;20029;-58